createdAt,value
2022-12-01T00:01:49.049Z,2.53
2022-12-01T00:04:15.923Z,2.45
2022-12-01T00:06:43.357Z,2.25
2022-12-01T00:09:29.108Z,2.10
2022-12-01T00:11:55.716Z,2.22
2022-12-01T00:14:22.733Z,2.80
2022-12-01T00:16:50.064Z,2.40
2022-12-01T00:19:17.766Z,2.15
2022-12-01T00:21:45.862Z,2.00
2022-12-01T00:24:12.617Z,2.30
2022-12-01T00:26:39.271Z,2.50
2022-12-01T00:29:05.996Z,2.40
2022-12-01T00:31:33.026Z,2.15
2022-12-01T00:33:59.607Z,2.00
2022-12-01T00:36:26.572Z,1.95
2022-12-01T00:38:54.607Z,1.90
2022-12-01T00:41:22.361Z,2.00
2022-12-01T00:43:51.968Z,2.50
2022-12-01T00:46:20.138Z,1.90
2022-12-01T00:48:46.857Z,1.88
2022-12-01T00:51:13.584Z,1.92
2022-12-01T00:53:40.797Z,1.70
2022-12-01T00:56:07.718Z,1.90
2022-12-01T00:58:34.420Z,1.92
2022-12-01T01:01:02.890Z,1.95
2022-12-01T01:03:33.033Z,2.10
2022-12-01T01:06:08.884Z,2.10
2022-12-01T01:08:35.671Z,2.08
2022-12-01T01:11:04.178Z,2.00
2022-12-01T01:13:31.228Z,1.75
2022-12-01T01:16:08.386Z,1.90
2022-12-01T01:18:35.097Z,1.77
2022-12-01T01:21:05.885Z,2.05
2022-12-01T01:23:32.645Z,1.73
2022-12-01T01:26:03.678Z,1.98
2022-12-01T01:28:31.210Z,1.60
2022-12-01T01:30:58.247Z,1.70
2022-12-01T01:33:25.300Z,1.88
2022-12-01T01:35:51.948Z,1.58
2022-12-01T01:38:18.552Z,1.95
2022-12-01T01:40:46.242Z,1.65
2022-12-01T01:43:16.170Z,1.65
2022-12-01T01:45:43.196Z,1.73
2022-12-01T01:48:11.916Z,1.63
2022-12-01T01:50:38.750Z,1.65
2022-12-01T01:53:09.119Z,1.65
2022-12-01T01:55:36.193Z,1.30
2022-12-01T01:58:05.111Z,1.70
2022-12-01T02:00:31.951Z,1.70
2022-12-01T02:02:59.960Z,1.90
2022-12-01T02:05:36.064Z,1.58
2022-12-01T02:08:04.527Z,1.42
2022-12-01T02:10:57.410Z,1.35
2022-12-01T02:13:54.498Z,2.00
2022-12-01T02:16:41.180Z,1.48
2022-12-01T02:19:21.902Z,1.65
2022-12-01T02:22:03.493Z,1.48
2022-12-01T02:24:53.787Z,1.80
2022-12-01T02:27:30.896Z,1.38
2022-12-01T02:30:08.136Z,1.60
2022-12-01T02:32:46.951Z,1.70
2022-12-01T02:35:16.393Z,1.60
2022-12-01T02:38:04.656Z,1.50
2022-12-01T02:40:40.605Z,1.58
2022-12-01T02:43:12.107Z,1.60
2022-12-01T02:45:58.440Z,1.50
2022-12-01T02:48:31.744Z,1.58
2022-12-01T02:51:01.773Z,1.55
2022-12-01T02:53:28.476Z,1.60
2022-12-01T02:55:57.011Z,1.35
2022-12-01T02:58:23.603Z,1.27
2022-12-01T03:01:10.505Z,1.48
2022-12-01T03:03:48.045Z,1.60
2022-12-01T03:06:28.809Z,1.30
2022-12-01T03:09:14.598Z,1.35
2022-12-01T03:12:01.888Z,1.30
2022-12-01T03:14:45.178Z,1.10
2022-12-01T03:17:17.224Z,1.40
2022-12-01T03:19:58.395Z,1.40
2022-12-01T03:22:42.257Z,1.60
2022-12-01T03:25:09.512Z,1.80
2022-12-01T03:27:37.752Z,1.73
2022-12-01T03:30:10.232Z,1.45
2022-12-01T03:32:42.983Z,1.58
2022-12-01T03:35:37.975Z,1.95
2022-12-01T03:38:10.547Z,1.40
2022-12-01T03:40:39.767Z,1.35
2022-12-01T03:43:09.741Z,1.40
2022-12-01T03:45:47.021Z,1.40
2022-12-01T03:48:13.892Z,1.42
2022-12-01T03:50:57.740Z,1.23
2022-12-01T03:53:27.978Z,1.30
2022-12-01T03:56:03.602Z,1.33
2022-12-01T03:58:36.512Z,1.40
2022-12-01T04:01:04.371Z,1.20
2022-12-01T04:03:31.163Z,1.45
2022-12-01T04:05:58.084Z,1.30
2022-12-01T04:08:25.212Z,1.20
2022-12-01T04:10:51.906Z,1.45
2022-12-01T04:13:25.553Z,0.90
2022-12-01T04:15:54.695Z,1.90
2022-12-01T04:18:21.974Z,1.00
2022-12-01T04:20:49.908Z,1.10
2022-12-01T04:23:35.041Z,1.52
2022-12-01T04:26:03.982Z,1.30
2022-12-01T04:28:31.348Z,1.40
2022-12-01T04:30:58.095Z,1.55
2022-12-01T04:33:24.938Z,1.40
2022-12-01T04:35:59.347Z,1.13
2022-12-01T04:38:30.244Z,1.33
2022-12-01T04:40:57.645Z,1.45
2022-12-01T04:43:24.463Z,1.27
2022-12-01T04:45:51.028Z,1.25
2022-12-01T04:48:17.582Z,1.33
2022-12-01T04:50:44.510Z,1.30
2022-12-01T04:53:11.100Z,1.08
2022-12-01T04:55:39.436Z,1.33
2022-12-01T04:58:06.166Z,1.10
2022-12-01T05:00:33.498Z,1.20
2022-12-01T05:03:02.268Z,0.98
2022-12-01T05:05:29.577Z,1.20
2022-12-01T05:07:56.300Z,1.23
2022-12-01T05:10:22.925Z,1.35
2022-12-01T05:12:50.634Z,1.00
2022-12-01T05:15:17.480Z,1.10
2022-12-01T05:17:44.758Z,1.10
2022-12-01T05:20:38.115Z,1.30
2022-12-01T05:23:06.319Z,1.25
2022-12-01T05:25:34.008Z,1.38
2022-12-01T05:28:02.205Z,1.15
2022-12-01T05:30:29.076Z,1.10
2022-12-01T05:32:55.927Z,1.15
2022-12-01T05:35:23.977Z,1.05
2022-12-01T05:37:50.597Z,0.93
2022-12-01T05:40:17.313Z,0.88
2022-12-01T05:42:43.927Z,1.00
2022-12-01T05:45:10.757Z,1.02
2022-12-01T05:47:37.750Z,1.08
2022-12-01T05:50:06.291Z,1.63
2022-12-01T05:52:36.133Z,1.15
2022-12-01T05:55:04.358Z,1.25
2022-12-01T05:57:32.141Z,1.13
2022-12-01T05:59:59.362Z,1.15
2022-12-01T06:02:28.803Z,1.15
2022-12-01T06:04:55.562Z,1.10
2022-12-01T06:07:23.505Z,1.20
2022-12-01T06:09:50.359Z,1.25
2022-12-01T06:12:17.299Z,1.00
2022-12-01T06:14:44.212Z,1.10
2022-12-01T06:17:11.415Z,1.40
2022-12-01T06:19:38.657Z,1.55
2022-12-01T06:22:05.404Z,1.20
2022-12-01T06:24:31.946Z,1.77
2022-12-01T06:26:58.763Z,1.65
2022-12-01T06:29:25.415Z,1.35
2022-12-01T06:31:52.068Z,1.30
2022-12-01T06:34:18.678Z,1.40
2022-12-01T06:36:45.247Z,1.58
2022-12-01T06:39:11.862Z,1.42
2022-12-01T06:41:39.017Z,1.40
2022-12-01T06:44:05.786Z,1.27
2022-12-01T06:46:32.577Z,1.45
2022-12-01T06:48:59.333Z,1.27
2022-12-01T06:51:26.789Z,1.52
2022-12-01T06:53:59.735Z,1.52
2022-12-01T06:56:30.706Z,1.70
2022-12-01T06:58:59.963Z,1.70
2022-12-01T07:01:27.097Z,1.40
2022-12-01T07:03:54.786Z,1.30
2022-12-01T07:06:21.460Z,1.40
2022-12-01T07:08:48.346Z,1.60
2022-12-01T07:11:15.693Z,1.55
2022-12-01T07:13:45.243Z,1.65
2022-12-01T07:16:12.104Z,1.52
2022-12-01T07:18:40.425Z,1.25
2022-12-01T07:21:14.309Z,1.55
2022-12-01T07:23:41.056Z,1.73
2022-12-01T07:26:10.562Z,1.88
2022-12-01T07:28:37.236Z,1.92
2022-12-01T07:31:06.255Z,1.98
2022-12-01T07:33:34.297Z,2.30
2022-12-01T07:36:02.141Z,2.03
2022-12-01T07:38:32.396Z,2.20
2022-12-01T07:41:03.700Z,1.80
2022-12-01T07:43:31.861Z,2.00
2022-12-01T07:46:10.593Z,2.20
2022-12-01T07:48:38.620Z,2.30
2022-12-01T07:51:10.434Z,2.30
2022-12-01T07:53:37.325Z,2.42
2022-12-01T07:56:08.630Z,2.55
2022-12-01T07:58:36.302Z,2.90
2022-12-01T08:01:09.157Z,2.00
2022-12-01T08:03:36.584Z,2.63
2022-12-01T08:06:05.344Z,2.33
2022-12-01T08:08:33.681Z,2.80
2022-12-01T08:11:02.104Z,3.22
2022-12-01T08:13:28.899Z,3.08
2022-12-01T08:15:55.762Z,3.00
2022-12-01T08:18:23.924Z,2.92
2022-12-01T08:20:51.191Z,2.40
2022-12-01T08:23:18.808Z,2.60
2022-12-01T08:25:46.252Z,2.63
2022-12-01T08:28:12.909Z,2.72
2022-12-01T08:30:39.774Z,3.20
2022-12-01T08:33:06.406Z,2.70
2022-12-01T08:35:35.582Z,2.80
2022-12-01T08:38:03.077Z,2.75
2022-12-01T08:40:31.368Z,2.63
2022-12-01T08:42:58.735Z,2.47
2022-12-01T08:45:25.285Z,4.10
2022-12-01T08:47:53.553Z,3.28
2022-12-01T08:50:20.168Z,4.00
2022-12-01T08:52:47.033Z,7.18
2022-12-01T08:55:13.570Z,3.30
2022-12-01T08:57:40.263Z,3.50
2022-12-01T09:00:07.701Z,4.13
2022-12-01T09:02:34.733Z,3.35
2022-12-01T09:05:01.637Z,3.65
2022-12-01T09:07:28.975Z,34.70
2022-12-01T09:09:55.703Z,32.63
2022-12-01T09:12:22.349Z,19.13
2022-12-01T09:14:49.706Z,15.18
2022-12-01T09:17:17.286Z,14.35
2022-12-01T09:19:44.342Z,13.32
2022-12-01T09:22:11.794Z,11.43
2022-12-01T09:24:38.777Z,10.75
2022-12-01T09:27:05.750Z,9.68
2022-12-01T09:29:33.340Z,9.05
2022-12-01T09:32:00.851Z,7.97
2022-12-01T09:34:29.083Z,7.47
2022-12-01T09:36:57.920Z,6.53
2022-12-01T09:39:25.246Z,6.57
2022-12-01T09:41:54.350Z,6.68
2022-12-01T09:44:41.498Z,5.80
2022-12-01T09:47:19.255Z,5.10
2022-12-01T09:49:51.924Z,4.95
2022-12-01T09:52:19.818Z,4.95
2022-12-01T09:54:49.781Z,4.60
2022-12-01T09:57:49.214Z,4.85
2022-12-01T10:00:20.796Z,4.72
2022-12-01T10:03:01.158Z,4.20
2022-12-01T10:05:34.488Z,3.78
2022-12-01T10:08:03.975Z,4.00
2022-12-01T10:10:35.518Z,3.47
2022-12-01T10:13:02.920Z,3.42
2022-12-01T10:15:52.686Z,3.30
2022-12-01T10:18:56.493Z,3.25
2022-12-01T10:21:38.148Z,2.67
2022-12-01T10:24:28.227Z,3.00
2022-12-01T10:27:23.217Z,3.20
2022-12-01T10:30:02.647Z,2.60
2022-12-01T10:32:51.612Z,2.83
2022-12-01T10:35:21.660Z,2.83
2022-12-01T10:37:56.878Z,2.90
2022-12-01T10:40:23.871Z,3.00
2022-12-01T10:42:51.176Z,2.38
2022-12-01T10:45:25.087Z,2.40
2022-12-01T10:48:11.248Z,2.85
2022-12-01T10:53:04.756Z,2.20
2022-12-01T10:55:35.490Z,2.35
2022-12-01T10:58:14.896Z,2.03
2022-12-01T11:00:59.548Z,1.85
2022-12-01T11:03:32.347Z,2.28
2022-12-01T11:06:01.512Z,2.35
2022-12-01T11:08:41.683Z,1.92
2022-12-01T11:11:29.092Z,2.05
2022-12-01T11:13:57.019Z,1.98
2022-12-01T11:16:38.934Z,1.88
2022-12-01T11:19:10.425Z,2.20
2022-12-01T11:21:46.559Z,1.95
2022-12-01T11:24:45.620Z,1.77
2022-12-01T11:27:21.132Z,1.63
2022-12-01T11:29:49.921Z,2.60
2022-12-01T11:32:27.140Z,2.17
2022-12-01T11:35:00.485Z,2.00
2022-12-01T11:38:13.154Z,2.05
2022-12-01T11:40:46.211Z,2.03
2022-12-01T11:43:22.678Z,2.00
2022-12-01T11:45:49.570Z,1.85
2022-12-01T11:48:25.840Z,1.30
2022-12-01T11:51:14.428Z,1.80
2022-12-01T11:53:42.935Z,1.88
2022-12-01T11:56:28.637Z,1.33
2022-12-01T11:59:01.988Z,1.33
2022-12-01T12:01:54.615Z,1.83
2022-12-01T12:04:39.926Z,1.80
2022-12-01T12:07:30.410Z,1.67
2022-12-01T12:10:32.196Z,1.63
2022-12-01T12:13:26.883Z,1.95
2022-12-01T12:16:02.777Z,1.60
2022-12-01T12:18:35.224Z,1.50
2022-12-01T12:21:27.507Z,2.10
2022-12-01T12:24:13.905Z,1.67
2022-12-01T12:26:50.186Z,1.73
2022-12-01T12:29:29.415Z,2.20
2022-12-01T12:31:55.987Z,2.15
2022-12-01T12:34:57.630Z,1.77
2022-12-01T12:37:59.356Z,1.60
2022-12-01T12:40:42.525Z,1.70
2022-12-01T12:43:34.899Z,1.88
2022-12-01T12:46:14.700Z,1.83
2022-12-01T12:49:18.659Z,1.70
2022-12-01T12:51:47.577Z,1.75
2022-12-01T12:54:52.691Z,1.52
2022-12-01T12:57:27.390Z,1.83
2022-12-01T13:00:04.279Z,2.08
2022-12-01T13:02:50.835Z,1.40
2022-12-01T13:05:28.651Z,1.60
2022-12-01T13:08:06.432Z,1.67
2022-12-01T13:10:39.822Z,1.58
2022-12-01T13:13:17.654Z,1.65
2022-12-01T13:15:45.542Z,1.70
2022-12-01T13:18:40.018Z,1.58
2022-12-01T13:21:07.358Z,1.42
2022-12-01T13:23:35.431Z,1.50
2022-12-01T13:26:05.788Z,1.60
2022-12-01T13:28:40.708Z,1.80
2022-12-01T13:33:35.882Z,1.20
2022-12-01T13:36:44.728Z,2.22
2022-12-01T13:38:59.188Z,2.28
2022-12-01T13:41:33.039Z,1.77
2022-12-01T13:44:21.150Z,2.25
2022-12-01T13:46:47.983Z,1.90
2022-12-01T13:49:46.495Z,1.60
2022-12-01T13:52:22.489Z,1.70
2022-12-01T13:55:07.374Z,2.05
2022-12-01T13:57:45.476Z,2.00
2022-12-01T14:00:32.429Z,1.83
2022-12-01T14:03:12.016Z,1.73
2022-12-01T14:05:41.714Z,2.03
2022-12-01T14:08:23.495Z,1.73
2022-12-01T14:11:02.716Z,1.60
2022-12-01T14:13:30.890Z,1.60
2022-12-01T14:15:59.883Z,1.73
2022-12-01T14:18:35.768Z,1.40
2022-12-01T14:21:05.756Z,2.00
2022-12-01T14:23:34.713Z,2.00
2022-12-01T14:26:19.660Z,1.92
2022-12-01T14:28:55.289Z,1.60
2022-12-01T14:31:24.529Z,1.67
2022-12-01T14:34:08.286Z,1.83
2022-12-01T14:36:43.525Z,1.77
2022-12-01T14:39:19.656Z,2.08
2022-12-01T14:41:49.289Z,1.88
2022-12-01T14:44:34.681Z,1.85
2022-12-01T14:47:06.605Z,1.60
2022-12-01T14:49:49.681Z,2.15
2022-12-01T14:52:28.432Z,1.98
2022-12-01T14:54:57.561Z,2.35
2022-12-01T14:57:38.268Z,2.03
2022-12-01T15:00:06.782Z,1.83
2022-12-01T15:02:34.791Z,1.92
2022-12-01T15:05:06.904Z,1.67
2022-12-01T15:07:39.389Z,1.88
2022-12-01T15:10:06.995Z,1.90
2022-12-01T15:12:33.740Z,2.17
2022-12-01T15:15:00.598Z,2.00
2022-12-01T15:17:30.482Z,1.95
2022-12-01T15:19:57.332Z,2.03
2022-12-01T15:22:29.088Z,1.52
2022-12-01T15:25:05.815Z,2.28
2022-12-01T15:27:33.277Z,1.33
2022-12-01T15:30:04.196Z,1.80
2022-12-01T15:32:32.593Z,2.03
2022-12-01T15:35:05.330Z,1.88
2022-12-01T15:37:41.249Z,2.00
2022-12-01T15:40:59.742Z,1.95
2022-12-01T15:43:05.572Z,2.33
2022-12-01T15:45:44.731Z,1.92
2022-12-01T15:48:16.909Z,1.90
2022-12-01T15:50:46.711Z,2.10
2022-12-01T15:53:29.375Z,1.92
2022-12-01T15:55:59.235Z,1.55
2022-12-01T15:58:30.191Z,1.67
2022-12-01T16:01:02.670Z,1.90
2022-12-01T16:03:29.727Z,2.10
2022-12-01T16:05:57.275Z,1.83
2022-12-01T16:08:27.523Z,1.98
2022-12-01T16:11:17.790Z,2.03
2022-12-01T16:13:50.251Z,1.80
2022-12-01T16:16:36.100Z,1.85
2022-12-01T16:19:07.445Z,1.65
2022-12-01T16:21:47.276Z,1.42
2022-12-01T16:24:17.244Z,2.22
2022-12-01T16:26:52.826Z,1.90
2022-12-01T16:29:20.988Z,2.38
2022-12-01T16:32:12.404Z,2.10
2022-12-01T16:34:46.010Z,1.73
2022-12-01T16:37:14.657Z,2.05
2022-12-01T16:39:42.851Z,1.73
2022-12-01T16:42:12.928Z,1.75
2022-12-01T16:44:39.857Z,2.72
2022-12-01T16:47:17.216Z,2.70
2022-12-01T16:49:43.830Z,2.05
2022-12-01T16:54:58.304Z,2.65
2022-12-01T16:57:24.892Z,2.20
2022-12-01T16:59:51.574Z,1.92
2022-12-01T17:02:18.239Z,1.90
2022-12-01T17:04:44.941Z,1.95
2022-12-01T17:07:12.884Z,1.55
2022-12-01T17:09:39.527Z,1.50
2022-12-01T17:12:06.238Z,1.67
2022-12-01T17:14:32.919Z,1.70
2022-12-01T17:16:59.635Z,1.73
2022-12-01T17:19:26.231Z,1.83
2022-12-01T17:21:52.964Z,1.92
2022-12-01T17:24:21.837Z,2.13
2022-12-01T17:26:49.042Z,1.58
2022-12-01T17:29:15.652Z,1.92
2022-12-01T17:31:42.329Z,1.60
2022-12-01T17:34:09.031Z,1.65
2022-12-01T17:36:35.600Z,2.60
2022-12-01T17:39:02.266Z,2.17
2022-12-01T17:41:35.502Z,1.98
2022-12-01T17:44:03.735Z,2.10
2022-12-01T17:46:31.237Z,2.15
2022-12-01T17:48:58.598Z,2.55
2022-12-01T17:51:25.190Z,2.50
2022-12-01T17:53:53.294Z,2.38
2022-12-01T17:56:19.865Z,3.03
2022-12-01T17:58:46.606Z,2.58
2022-12-01T18:01:16.136Z,3.03
2022-12-01T18:03:43.433Z,2.95
2022-12-01T18:06:11.697Z,2.75
2022-12-01T18:08:39.738Z,2.33
2022-12-01T18:11:09.834Z,2.80
2022-12-01T18:13:40.553Z,2.70
2022-12-01T18:16:16.613Z,3.15
2022-12-01T18:18:43.883Z,3.22
2022-12-01T18:21:13.582Z,3.13
2022-12-01T18:23:40.560Z,4.13
2022-12-01T18:26:15.367Z,3.78
2022-12-01T18:28:43.139Z,3.90
2022-12-01T18:31:15.446Z,4.28
2022-12-01T18:33:43.493Z,4.07
2022-12-01T18:36:18.886Z,3.53
2022-12-01T18:38:47.201Z,3.67
2022-12-01T18:41:14.800Z,4.28
2022-12-01T18:43:41.817Z,3.40
2022-12-01T18:46:10.887Z,3.58
2022-12-01T18:48:38.137Z,3.80
2022-12-01T18:51:06.700Z,3.92
2022-12-01T18:53:35.386Z,3.88
2022-12-01T18:56:08.115Z,3.72
2022-12-01T18:58:35.553Z,3.40
2022-12-01T19:01:03.370Z,3.25
2022-12-01T19:03:32.169Z,3.25
2022-12-01T19:05:59.171Z,3.90
2022-12-01T19:08:25.850Z,3.65
2022-12-01T19:11:03.440Z,3.38
2022-12-01T19:13:32.956Z,3.50
2022-12-01T19:15:59.584Z,2.95
2022-12-01T19:18:26.499Z,3.67
2022-12-01T19:20:53.219Z,3.70
2022-12-01T19:23:19.909Z,3.33
2022-12-01T19:25:46.527Z,3.38
2022-12-01T19:28:13.522Z,2.72
2022-12-01T19:30:46.759Z,3.20
2022-12-01T19:33:15.537Z,3.28
2022-12-01T19:35:42.128Z,3.88
2022-12-01T19:38:10.085Z,3.40
2022-12-01T19:40:38.940Z,3.38
2022-12-01T19:43:05.643Z,3.58
2022-12-01T19:45:37.102Z,2.85
2022-12-01T19:48:04.879Z,2.47
2022-12-01T19:50:35.907Z,2.88
2022-12-01T19:53:02.747Z,3.08
2022-12-01T19:55:30.499Z,3.65
2022-12-01T19:57:57.505Z,3.40
2022-12-01T20:00:25.849Z,3.95
2022-12-01T20:02:52.575Z,3.50
2022-12-01T20:05:19.282Z,3.40
2022-12-01T20:07:45.972Z,3.42
2022-12-01T20:10:13.499Z,3.22
2022-12-01T20:12:41.266Z,3.47
2022-12-01T20:15:08.746Z,3.83
2022-12-01T20:17:36.612Z,3.53
2022-12-01T20:20:04.971Z,3.45
2022-12-01T20:22:35.304Z,3.75
2022-12-01T20:25:02.417Z,3.03
2022-12-01T20:27:29.515Z,3.50
2022-12-01T20:29:56.504Z,3.50
2022-12-01T20:32:23.978Z,3.47
2022-12-01T20:34:51.321Z,3.58
2022-12-01T20:37:18.753Z,3.50
2022-12-01T20:39:45.780Z,3.95
2022-12-01T20:42:12.395Z,3.72
2022-12-01T20:44:40.384Z,3.83
2022-12-01T20:47:07.195Z,4.85
2022-12-01T20:49:34.289Z,5.93
2022-12-01T20:52:01.114Z,4.50
2022-12-01T20:54:30.000Z,5.40
2022-12-01T20:56:57.806Z,4.70
2022-12-01T20:59:24.731Z,4.00
2022-12-01T21:01:51.969Z,3.75
2022-12-01T21:04:18.586Z,4.25
2022-12-01T21:06:45.585Z,4.28
2022-12-01T21:09:13.316Z,3.80
2022-12-01T21:12:06.617Z,3.97
2022-12-01T21:15:05.691Z,4.05
2022-12-01T21:17:40.042Z,3.63
2022-12-01T21:20:11.532Z,4.35
2022-12-01T21:22:38.185Z,4.07
2022-12-01T21:25:16.756Z,3.90
2022-12-01T21:27:43.620Z,4.10
2022-12-01T21:30:19.169Z,4.10
2022-12-01T21:32:46.886Z,3.50
2022-12-01T21:35:24.879Z,3.40
2022-12-01T21:38:03.663Z,3.83
2022-12-01T21:40:31.071Z,3.80
2022-12-01T21:43:01.714Z,4.20
2022-12-01T21:45:31.825Z,3.65
2022-12-01T21:48:10.999Z,4.20
2022-12-01T21:50:37.853Z,4.72
2022-12-01T21:53:12.057Z,4.57
2022-12-01T21:55:39.236Z,3.92
2022-12-01T21:58:36.864Z,3.72
2022-12-01T22:01:15.467Z,4.00
2022-12-01T22:03:45.845Z,3.65
2022-12-01T22:06:30.327Z,3.60
2022-12-01T22:09:01.376Z,3.60
2022-12-01T22:11:29.548Z,4.50
2022-12-01T22:14:00.928Z,3.50
2022-12-01T22:16:29.183Z,3.95
2022-12-01T22:18:58.141Z,3.55
2022-12-01T22:21:24.777Z,3.85
2022-12-01T22:24:12.237Z,3.55
2022-12-01T22:26:41.696Z,3.50
2022-12-01T22:29:28.045Z,3.50
2022-12-01T22:32:14.818Z,4.15
2022-12-01T22:34:50.008Z,3.80
2022-12-01T22:37:20.947Z,3.70
2022-12-01T22:39:49.962Z,2.95
2022-12-01T22:42:33.922Z,3.72
2022-12-01T22:45:23.230Z,3.25
2022-12-01T22:47:50.002Z,2.95
2022-12-01T22:50:26.549Z,3.00
2022-12-01T22:52:55.858Z,2.72
2022-12-01T22:55:22.517Z,2.67
2022-12-01T22:57:49.189Z,3.35
2022-12-01T23:00:17.693Z,3.67
2022-12-01T23:02:44.592Z,2.88
2022-12-01T23:05:19.559Z,2.90
2022-12-01T23:07:46.284Z,2.83
2022-12-01T23:10:23.413Z,3.17
2022-12-01T23:12:52.399Z,2.50
2022-12-01T23:15:54.080Z,3.15
2022-12-01T23:18:22.157Z,2.85
2022-12-01T23:20:50.805Z,2.72
2022-12-01T23:23:19.822Z,2.88
2022-12-01T23:25:49.524Z,2.30
2022-12-01T23:28:16.318Z,2.70
2022-12-01T23:30:44.197Z,2.53
2022-12-01T23:33:14.477Z,2.65
2022-12-01T23:35:59.460Z,2.60
2022-12-01T23:38:38.178Z,2.72
2022-12-01T23:41:13.120Z,2.58
2022-12-01T23:46:09.876Z,2.30
2022-12-01T23:48:52.492Z,2.45
2022-12-01T23:51:30.669Z,2.30
2022-12-01T23:53:59.668Z,2.60
2022-12-01T23:56:28.517Z,2.55
2022-12-01T23:58:56.258Z,2.05
